createdAt,value
2019-04-22T00:00:08.822Z,4.40
2019-04-22T00:02:43.557Z,4.00
2019-04-22T00:05:17.850Z,3.80
2019-04-22T00:08:03.461Z,3.40
2019-04-22T00:10:32.653Z,3.40
2019-04-22T00:12:59.866Z,5.20
2019-04-22T00:15:29.188Z,6.07
2019-04-22T00:20:32.170Z,4.33
2019-04-22T00:22:59.765Z,4.37
2019-04-22T00:25:50.714Z,4.00
2019-04-22T00:28:05.002Z,3.83
2019-04-22T00:30:28.103Z,3.80
2019-04-22T00:33:11.676Z,3.60
2019-04-22T00:35:41.961Z,3.50
2019-04-22T00:38:17.631Z,3.40
2019-04-22T00:40:45.071Z,3.87
2019-04-22T00:43:17.325Z,3.33
2019-04-22T00:48:17.851Z,3.40
2019-04-22T00:50:46.400Z,3.40
2019-04-22T00:53:16.427Z,3.83
2019-04-22T00:56:11.358Z,3.50
2019-04-22T00:58:41.265Z,4.30
2019-04-22T01:01:14.404Z,3.90
2019-04-22T01:03:46.267Z,3.40
2019-04-22T01:06:12.663Z,4.10
2019-04-22T01:08:51.391Z,3.93
2019-04-22T01:11:11.284Z,3.00
2019-04-22T01:13:34.348Z,4.23
2019-04-22T01:16:13.936Z,4.03
2019-04-22T01:18:38.172Z,3.43
2019-04-22T01:23:39.248Z,4.30
2019-04-22T01:26:00.777Z,3.70
2019-04-22T01:28:27.288Z,3.70
2019-04-22T01:30:51.661Z,4.10
2019-04-22T01:33:21.809Z,3.40
2019-04-22T01:36:04.637Z,3.00
2019-04-22T01:38:31.566Z,3.23
2019-04-22T01:41:07.165Z,3.40
2019-04-22T01:43:40.921Z,3.87
2019-04-22T01:46:09.746Z,3.37
2019-04-22T01:48:44.812Z,3.50
2019-04-22T01:51:00.858Z,3.60
2019-04-22T01:53:38.887Z,3.60
2019-04-22T01:56:12.290Z,3.63
2019-04-22T01:58:31.183Z,4.17
2019-04-22T02:00:59.187Z,3.53
2019-04-22T02:03:35.488Z,3.73
2019-04-22T02:05:59.505Z,3.80
2019-04-22T02:08:37.986Z,3.60
2019-04-22T02:11:04.225Z,3.30
2019-04-22T02:13:28.992Z,3.37
2019-04-22T02:15:58.691Z,3.80
2019-04-22T02:18:32.913Z,3.50
2019-04-22T02:20:54.841Z,3.37
2019-04-22T02:23:43.912Z,3.10
2019-04-22T02:26:01.150Z,3.87
2019-04-22T02:28:36.956Z,3.90
2019-04-22T02:36:20.247Z,3.07
2019-04-22T02:38:57.401Z,3.70
2019-04-22T02:41:21.385Z,3.80
2019-04-22T02:43:46.561Z,3.43
2019-04-22T02:48:48.860Z,3.63
2019-04-22T02:51:04.287Z,3.80
2019-04-22T02:53:58.970Z,4.37
2019-04-22T02:56:16.669Z,5.50
2019-04-22T02:58:38.363Z,5.00
2019-04-22T03:03:59.215Z,4.20
2019-04-22T03:08:36.768Z,3.77
2019-04-22T03:11:11.099Z,3.20
2019-04-22T03:13:30.782Z,3.40
2019-04-22T03:16:01.324Z,3.73
2019-04-22T03:18:29.074Z,4.10
2019-04-22T03:23:36.825Z,3.60
2019-04-22T03:28:23.276Z,3.17
2019-04-22T03:32:12.896Z,3.60
2019-04-22T03:34:54.568Z,3.67
2019-04-22T03:37:17.590Z,3.20
2019-04-22T03:46:41.900Z,3.40
2019-04-22T03:49:22.991Z,3.23
2019-04-22T03:59:11.500Z,3.13
2019-04-22T04:01:38.128Z,3.00
2019-04-22T04:04:09.100Z,3.90
2019-04-22T04:06:34.683Z,3.77
2019-04-22T04:09:03.412Z,3.80
2019-04-22T04:11:32.112Z,3.60
2019-04-22T04:14:01.478Z,3.30
2019-04-22T04:24:29.540Z,3.23
2019-04-22T04:26:38.725Z,3.53
2019-04-22T04:36:28.321Z,3.70
2019-04-22T04:38:52.266Z,3.70
2019-04-22T04:41:26.664Z,3.30
2019-04-22T04:43:52.916Z,3.53
2019-04-22T04:46:27.228Z,3.90
2019-04-22T04:48:55.681Z,3.73
2019-04-22T04:51:33.812Z,3.30
2019-04-22T04:53:53.116Z,3.73
2019-04-22T05:03:48.999Z,3.70
2019-04-22T05:06:13.074Z,3.40
2019-04-22T05:16:25.519Z,3.63
2019-04-22T05:18:37.978Z,3.83
2019-04-22T05:21:14.531Z,4.40
2019-04-22T05:23:37.225Z,4.47
2019-04-22T05:26:04.309Z,4.20
2019-04-22T05:28:31.770Z,4.13
2019-04-22T05:31:03.036Z,4.50
2019-04-22T05:33:33.028Z,3.80
2019-04-22T05:36:01.501Z,4.13
2019-04-22T05:38:35.001Z,3.83
2019-04-22T05:41:00.621Z,3.83
2019-04-22T05:43:28.929Z,3.97
2019-04-22T05:45:54.545Z,3.93
2019-04-22T05:48:25.149Z,4.23
2019-04-22T05:50:57.698Z,3.83
2019-04-22T05:53:20.044Z,4.10
2019-04-22T05:56:12.494Z,4.60
2019-04-22T05:58:24.370Z,4.30
2019-04-22T06:03:39.704Z,4.50
2019-04-22T06:06:09.237Z,3.77
2019-04-22T06:08:42.462Z,4.33
2019-04-22T06:11:18.436Z,4.13
2019-04-22T06:13:36.908Z,4.20
2019-04-22T06:16:09.218Z,4.07
2019-04-22T06:18:44.939Z,4.47
2019-04-22T06:21:11.559Z,3.93
2019-04-22T06:23:46.782Z,4.30
2019-04-22T06:28:48.129Z,3.83
2019-04-22T06:33:45.852Z,3.97
2019-04-22T06:36:08.579Z,4.27
2019-04-22T06:41:13.696Z,4.23
2019-04-22T06:43:40.811Z,4.33
2019-04-22T06:46:09.823Z,4.73
2019-04-22T06:48:36.562Z,4.60
2019-04-22T06:51:04.942Z,4.37
2019-04-22T06:53:37.340Z,4.20
2019-04-22T06:56:00.082Z,4.30
2019-04-22T06:58:29.063Z,4.57
2019-04-22T07:01:04.335Z,3.80
2019-04-22T07:05:57.134Z,4.40
2019-04-22T07:09:02.447Z,4.03
2019-04-22T07:10:56.297Z,4.30
2019-04-22T07:13:27.444Z,4.47
2019-04-22T07:16:13.702Z,4.77
2019-04-22T07:18:33.430Z,4.20
2019-04-22T07:20:57.852Z,4.40
2019-04-22T07:23:29.679Z,4.20
2019-04-22T07:25:56.569Z,5.03
2019-04-22T07:28:20.257Z,4.33
2019-04-22T07:30:56.267Z,4.00
2019-04-22T07:33:28.130Z,3.30
2019-04-22T07:36:12.567Z,4.70
2019-04-22T07:38:23.800Z,3.93
2019-04-22T07:40:51.904Z,4.57
2019-04-22T07:43:27.979Z,4.10
2019-04-22T07:45:48.703Z,4.50
2019-04-22T07:48:26.211Z,3.90
2019-04-22T07:53:10.365Z,4.00
2019-04-22T07:55:50.778Z,3.90
2019-04-22T07:58:18.661Z,4.30
2019-04-22T08:00:43.813Z,4.63
2019-04-22T08:03:22.694Z,4.10
2019-04-22T08:05:52.173Z,4.20
2019-04-22T08:08:21.477Z,4.10
2019-04-22T08:13:14.966Z,3.77
2019-04-22T08:15:48.601Z,3.70
2019-04-22T08:18:17.434Z,4.20
2019-04-22T08:20:44.100Z,6.17
2019-04-22T08:23:22.653Z,5.20
2019-04-22T08:25:46.159Z,4.10
2019-04-22T08:28:10.438Z,3.70
2019-04-22T08:30:41.467Z,3.50
2019-04-22T08:33:17.291Z,3.67
2019-04-22T08:35:52.281Z,3.63
2019-04-22T08:38:17.587Z,3.40
2019-04-22T08:40:43.304Z,3.93
2019-04-22T08:45:44.347Z,3.60
2019-04-22T08:48:07.629Z,4.20
2019-04-22T08:53:16.065Z,3.57
2019-04-22T08:55:46.443Z,4.17
2019-04-22T08:58:21.378Z,3.67
2019-04-22T09:00:44.238Z,3.43
2019-04-22T09:03:14.035Z,3.13
2019-04-22T09:10:46.913Z,3.93
2019-04-22T09:13:27.799Z,3.70
2019-04-22T09:15:34.295Z,3.40
2019-04-22T09:18:08.426Z,3.90
2019-04-22T09:23:09.678Z,3.83
2019-04-22T09:25:36.009Z,4.30
2019-04-22T09:28:05.559Z,4.10
2019-04-22T09:33:11.111Z,3.90
2019-04-22T09:35:37.466Z,3.53
2019-04-22T09:38:18.942Z,3.63
2019-04-22T09:40:33.204Z,4.07
2019-04-22T09:43:17.040Z,4.23
2019-04-22T09:45:28.682Z,3.70
2019-04-22T09:48:08.792Z,3.67
2019-04-22T09:50:40.449Z,3.83
2019-04-22T09:53:02.477Z,3.70
2019-04-22T09:55:29.874Z,3.27
2019-04-22T09:58:01.028Z,4.13
2019-04-22T10:00:36.504Z,3.30
2019-04-22T10:03:00.795Z,3.20
2019-04-22T10:05:32.571Z,3.80
2019-04-22T10:08:02.764Z,3.97
2019-04-22T10:10:29.561Z,4.00
2019-04-22T10:12:54.311Z,3.87
2019-04-22T10:15:33.426Z,4.27
2019-04-22T10:17:58.094Z,4.50
2019-04-22T10:20:36.352Z,4.13
2019-04-22T10:22:58.126Z,4.50
2019-04-22T10:25:29.623Z,4.30
2019-04-22T10:28:01.883Z,4.30
2019-04-22T10:30:39.244Z,4.50
2019-04-22T10:32:56.269Z,4.00
2019-04-22T10:35:10.255Z,4.50
2019-04-22T10:37:34.348Z,4.37
2019-04-22T10:40:05.697Z,4.00
2019-04-22T10:42:40.863Z,4.30
2019-04-22T10:45:10.109Z,4.20
2019-04-22T10:47:38.288Z,4.30
2019-04-22T10:50:08.045Z,3.93
2019-04-22T10:52:35.444Z,3.73
2019-04-22T10:55:03.468Z,3.67
2019-04-22T10:57:31.870Z,3.33
2019-04-22T11:00:00.709Z,4.10
2019-04-22T11:02:29.786Z,4.17
2019-04-22T11:04:58.616Z,3.80
2019-04-22T11:07:35.996Z,3.80
2019-04-22T11:10:14.945Z,3.47
2019-04-22T11:12:28.242Z,3.80
2019-04-22T11:14:54.175Z,3.80
2019-04-22T11:17:21.815Z,3.23
2019-04-22T11:19:49.913Z,3.90
2019-04-22T11:22:22.998Z,3.50
2019-04-22T11:24:46.744Z,3.70
2019-04-22T11:27:14.963Z,3.30
2019-04-22T11:29:43.710Z,3.87
2019-04-22T11:32:12.805Z,3.23
2019-04-22T11:34:40.386Z,4.00
2019-04-22T11:37:07.782Z,4.17
2019-04-22T11:39:36.657Z,4.27
2019-04-22T11:42:04.704Z,3.87
2019-04-22T11:44:33.002Z,4.10
2019-04-22T11:47:01.546Z,4.13
2019-04-22T11:49:30.037Z,4.20
2019-04-22T11:51:58.824Z,4.03
2019-04-22T11:54:26.538Z,3.57
2019-04-22T11:56:54.886Z,3.40
2019-04-22T11:59:22.670Z,3.93
2019-04-22T12:01:50.975Z,4.30
2019-04-22T12:04:20.023Z,4.20
2019-04-22T12:06:47.624Z,3.87
2019-04-22T12:09:17.604Z,3.47
2019-04-22T12:11:46.761Z,4.00
2019-04-22T12:14:14.325Z,4.40
2019-04-22T12:16:41.716Z,3.33
2019-04-22T12:19:09.317Z,3.53
2019-04-22T12:21:37.094Z,3.87
2019-04-22T12:24:05.571Z,3.77
2019-04-22T12:26:34.567Z,3.93
2019-04-22T12:29:04.758Z,3.57
2019-04-22T12:31:33.469Z,3.20
2019-04-22T12:34:01.482Z,3.67
2019-04-22T12:36:30.602Z,3.53
2019-04-22T12:38:58.130Z,3.50
2019-04-22T12:41:25.901Z,4.03
2019-04-22T12:43:53.476Z,3.60
2019-04-22T12:46:20.912Z,4.07
2019-04-22T12:48:49.782Z,3.80
2019-04-22T12:51:18.730Z,3.77
2019-04-22T12:53:46.346Z,3.50
2019-04-22T12:56:15.195Z,4.13
2019-04-22T12:58:43.406Z,4.13
2019-04-22T13:01:11.029Z,3.80
2019-04-22T13:03:38.460Z,3.40
2019-04-22T13:06:06.058Z,3.80
2019-04-22T13:08:33.941Z,4.50
2019-04-22T13:11:09.743Z,4.37
2019-04-22T13:13:31.391Z,4.23
2019-04-22T13:15:59.329Z,4.27
2019-04-22T13:18:35.256Z,4.20
2019-04-22T13:20:56.773Z,3.93
2019-04-22T13:23:25.444Z,4.00
2019-04-22T13:25:53.018Z,3.30
2019-04-22T13:28:21.039Z,3.13
2019-04-22T13:30:50.514Z,3.30
2019-04-22T13:33:19.178Z,3.23
2019-04-22T13:35:48.000Z,4.27
2019-04-22T13:38:17.154Z,3.53
2019-04-22T13:41:02.187Z,4.40
2019-04-22T13:43:14.467Z,4.50
2019-04-22T13:45:41.868Z,4.27
2019-04-22T13:48:29.733Z,4.67
2019-04-22T13:53:48.124Z,4.33
2019-04-22T13:58:18.520Z,4.27
2019-04-22T14:00:36.422Z,4.83
2019-04-22T14:03:30.769Z,4.33
2019-04-22T14:05:58.688Z,4.43
2019-04-22T14:08:26.945Z,4.60
2019-04-22T14:10:54.477Z,4.50
2019-04-22T14:13:21.839Z,5.30
2019-04-22T14:15:50.879Z,4.73
2019-04-22T14:18:19.064Z,4.67
2019-04-22T14:20:46.968Z,4.40
2019-04-22T14:23:15.957Z,4.67
2019-04-22T14:25:43.743Z,4.23
2019-04-22T14:28:16.924Z,4.30
2019-04-22T14:30:40.575Z,4.30
2019-04-22T14:33:09.856Z,4.53
2019-04-22T14:35:38.169Z,4.33
2019-04-22T14:38:07.962Z,4.30
2019-04-22T14:40:36.625Z,4.80
2019-04-22T14:43:25.251Z,4.47
2019-04-22T14:48:33.453Z,3.97
2019-04-22T14:50:51.717Z,3.80
2019-04-22T14:53:20.716Z,3.90
2019-04-22T14:55:36.029Z,3.60
2019-04-22T14:58:01.145Z,3.80
2019-04-22T15:00:29.568Z,3.40
2019-04-22T15:02:57.632Z,4.00
2019-04-22T15:05:26.045Z,4.13
2019-04-22T15:07:54.939Z,3.90
2019-04-22T15:10:24.205Z,4.13
2019-04-22T15:12:53.895Z,4.00
2019-04-22T15:15:45.860Z,4.23
2019-04-22T15:18:21.763Z,4.30
2019-04-22T15:20:58.874Z,4.10
2019-04-22T15:23:26.741Z,4.10
2019-04-22T15:25:54.761Z,4.30
2019-04-22T15:28:23.650Z,4.50
2019-04-22T15:30:51.408Z,4.43
2019-04-22T15:33:19.403Z,3.80
2019-04-22T15:35:47.279Z,4.57
2019-04-22T15:38:15.552Z,4.60
2019-04-22T15:40:43.215Z,4.80
2019-04-22T15:43:11.159Z,4.50
2019-04-22T15:45:39.119Z,4.90
2019-04-22T15:48:08.176Z,4.90
2019-04-22T15:50:36.908Z,4.33
2019-04-22T15:53:04.695Z,4.73
2019-04-22T15:55:32.513Z,4.73
2019-04-22T15:58:01.651Z,4.60
2019-04-22T16:00:39.376Z,4.50
2019-04-22T16:02:59.647Z,5.13
2019-04-22T16:05:28.051Z,4.80
2019-04-22T16:07:56.894Z,4.60
2019-04-22T16:10:24.351Z,4.37
2019-04-22T16:13:00.619Z,4.53
2019-04-22T16:15:22.492Z,4.70
2019-04-22T16:17:50.817Z,5.10
2019-04-22T16:20:19.278Z,5.07
2019-04-22T16:23:05.595Z,4.73
2019-04-22T16:25:51.314Z,4.90
2019-04-22T16:28:19.523Z,4.70
2019-04-22T16:30:47.297Z,5.07
2019-04-22T16:33:15.247Z,4.97
2019-04-22T16:35:42.943Z,6.10
2019-04-22T16:38:10.857Z,4.67
2019-04-22T16:40:38.923Z,5.20
2019-04-22T16:43:09.226Z,5.07
2019-04-22T16:45:35.802Z,5.40
2019-04-22T16:48:04.180Z,5.33
2019-04-22T16:50:32.841Z,5.10
2019-04-22T16:53:00.336Z,5.73
2019-04-22T16:55:28.594Z,4.77
2019-04-22T16:57:56.713Z,4.60
2019-04-22T17:00:25.068Z,5.30
2019-04-22T17:03:26.946Z,5.20
2019-04-22T17:06:25.691Z,5.30
2019-04-22T17:08:55.068Z,5.80
2019-04-22T17:11:22.810Z,5.10
2019-04-22T17:13:50.247Z,4.53
2019-04-22T17:16:18.079Z,5.10
2019-04-22T17:18:47.156Z,4.83
2019-04-22T17:21:14.864Z,4.80
2019-04-22T17:23:43.442Z,4.77
2019-04-22T17:26:12.450Z,4.70
2019-04-22T17:28:40.019Z,4.80
2019-04-22T17:31:08.701Z,4.67
2019-04-22T17:33:37.121Z,5.10
2019-04-22T17:36:05.466Z,5.07
2019-04-22T17:38:44.058Z,5.70
2019-04-22T17:41:18.730Z,5.00
2019-04-22T17:43:54.158Z,5.00
2019-04-22T17:46:24.796Z,4.77
2019-04-22T17:49:23.933Z,4.70
2019-04-22T17:52:07.603Z,4.80
2019-04-22T17:54:34.397Z,5.57
2019-04-22T17:57:04.789Z,5.70
2019-04-22T17:59:34.581Z,4.93
2019-04-22T18:01:56.650Z,4.70
2019-04-22T18:04:12.706Z,5.27
2019-04-22T18:07:02.150Z,5.60
2019-04-22T18:09:51.458Z,5.23
2019-04-22T18:12:06.678Z,4.90
2019-04-22T18:14:47.945Z,4.80
2019-04-22T18:17:00.236Z,4.80
2019-04-22T18:19:26.246Z,4.97
2019-04-22T18:21:51.647Z,5.57
2019-04-22T18:24:17.466Z,4.90
2019-04-22T18:27:02.038Z,5.10
2019-04-22T18:29:27.112Z,5.60
2019-04-22T18:31:47.808Z,4.23
2019-04-22T18:34:20.986Z,4.90
2019-04-22T18:36:54.135Z,4.83
2019-04-22T18:39:27.171Z,5.47
2019-04-22T18:41:51.988Z,7.50
2019-04-22T18:44:27.232Z,8.30
2019-04-22T18:46:53.703Z,6.63
2019-04-22T18:49:22.681Z,5.80
2019-04-22T18:51:59.185Z,5.70
2019-04-22T18:54:46.790Z,6.30
2019-04-22T18:57:20.789Z,5.30
2019-04-22T18:59:33.828Z,5.80
2019-04-22T19:02:02.534Z,5.80
2019-04-22T19:04:37.943Z,6.60
2019-04-22T19:07:24.278Z,7.70
2019-04-22T19:10:01.785Z,6.10
2019-04-22T19:12:37.000Z,6.60
2019-04-22T19:14:52.980Z,7.13
2019-04-22T19:17:28.548Z,6.53
2019-04-22T19:19:50.014Z,5.57
2019-04-22T19:22:19.517Z,5.70
2019-04-22T19:24:40.070Z,5.20
2019-04-22T19:27:09.275Z,4.33
2019-04-22T19:29:46.768Z,4.53
2019-04-22T19:32:06.611Z,4.90
2019-04-22T19:34:41.878Z,5.30
2019-04-22T19:37:07.106Z,4.33
2019-04-22T19:39:44.763Z,5.17
2019-04-22T19:42:18.966Z,5.60
2019-04-22T19:44:41.193Z,5.17
2019-04-22T19:49:45.454Z,5.97
2019-04-22T19:52:11.443Z,6.77
2019-04-22T19:54:40.693Z,6.47
2019-04-22T19:56:58.838Z,5.43
2019-04-22T19:59:36.669Z,6.20
2019-04-22T20:02:10.357Z,6.30
2019-04-22T20:05:02.774Z,6.77
2019-04-22T20:07:25.744Z,6.17
2019-04-22T20:09:53.745Z,6.00
2019-04-22T20:12:21.332Z,5.57
2019-04-22T20:14:51.208Z,7.00
2019-04-22T20:17:26.607Z,6.60
2019-04-22T20:19:55.495Z,5.93
2019-04-22T20:22:17.534Z,6.10
2019-04-22T20:24:40.741Z,8.03
2019-04-22T20:27:18.900Z,5.90
2019-04-22T20:29:48.939Z,5.40
2019-04-22T20:32:18.249Z,5.40
2019-04-22T20:34:51.131Z,5.20
2019-04-22T20:37:25.347Z,5.83
2019-04-22T20:39:49.129Z,6.67
2019-04-22T20:44:45.734Z,5.50
2019-04-22T20:47:09.394Z,6.00
2019-04-22T20:49:47.441Z,6.50
2019-04-22T20:52:19.056Z,5.10
2019-04-22T20:54:45.008Z,4.87
2019-04-22T20:57:09.737Z,5.20
2019-04-22T20:59:38.973Z,4.57
2019-04-22T21:02:06.613Z,6.90
2019-04-22T21:04:32.228Z,5.70
2019-04-22T21:07:07.678Z,6.37
2019-04-22T21:09:38.263Z,6.20
2019-04-22T21:12:02.090Z,5.07
2019-04-22T21:14:36.124Z,5.40
2019-04-22T21:17:06.987Z,5.67
2019-04-22T21:19:40.393Z,5.20
2019-04-22T21:22:12.427Z,5.70
2019-04-22T21:24:32.754Z,5.40
2019-04-22T21:27:08.464Z,6.40
2019-04-22T21:29:28.160Z,6.17
2019-04-22T21:32:01.082Z,6.40
2019-04-22T21:34:32.267Z,5.90
2019-04-22T21:37:12.236Z,6.30
2019-04-22T21:39:28.914Z,6.80
2019-04-22T21:42:00.185Z,6.00
2019-04-22T21:44:29.688Z,6.50
2019-04-22T21:47:09.036Z,6.20
2019-04-22T21:49:32.114Z,6.80
2019-04-22T21:51:58.401Z,5.40
2019-04-22T21:54:28.602Z,5.37
2019-04-22T21:57:18.863Z,4.50
2019-04-22T21:59:33.286Z,4.60
2019-04-22T22:02:09.734Z,8.17
2019-04-22T22:04:36.595Z,23.23
2019-04-22T22:06:57.129Z,14.13
2019-04-22T22:09:39.131Z,6.33
2019-04-22T22:12:02.651Z,4.50
2019-04-22T22:14:31.650Z,6.63
2019-04-22T22:16:56.194Z,6.27
2019-04-22T22:19:37.958Z,4.80
2019-04-22T22:22:16.337Z,4.10
2019-04-22T22:24:41.503Z,3.60
2019-04-22T22:27:04.871Z,3.60
2019-04-22T22:29:43.274Z,3.60
2019-04-22T22:32:05.360Z,4.00
2019-04-22T22:34:27.992Z,4.40
2019-04-22T22:36:58.907Z,4.30
2019-04-22T22:39:23.643Z,3.67
2019-04-22T22:41:41.740Z,3.87
2019-04-22T22:44:18.783Z,4.07
2019-04-22T22:46:55.998Z,3.40
2019-04-22T22:49:28.623Z,3.60
2019-04-22T22:52:24.853Z,3.63
2019-04-22T22:54:30.134Z,3.53
2019-04-22T22:57:08.753Z,3.47
2019-04-22T22:59:29.960Z,3.50
2019-04-22T23:01:54.570Z,4.07
2019-04-22T23:04:29.833Z,4.23
2019-04-22T23:06:56.168Z,3.83
2019-04-22T23:09:19.215Z,4.13
2019-04-22T23:12:12.137Z,3.93
2019-04-22T23:14:23.260Z,4.17
2019-04-22T23:16:39.440Z,3.70
2019-04-22T23:19:02.806Z,3.80
2019-04-22T23:21:39.775Z,3.40
2019-04-22T23:24:21.527Z,3.90
2019-04-22T23:27:10.239Z,3.60
2019-04-22T23:29:43.366Z,3.77
2019-04-22T23:32:18.519Z,3.77
2019-04-22T23:34:53.441Z,3.47
2019-04-22T23:37:23.182Z,3.60
2019-04-22T23:40:13.463Z,3.40
2019-04-22T23:42:28.478Z,3.77
2019-04-22T23:45:03.581Z,3.40
2019-04-22T23:47:26.153Z,3.77
2019-04-22T23:50:06.351Z,3.60
2019-04-22T23:52:35.667Z,3.40
2019-04-22T23:55:10.130Z,3.70
2019-04-22T23:57:42.188Z,3.23
